sensor_id;sensor_type;location;lat;lon;timestamp;P1;durP1;ratioP1;P2;durP2;ratioP2
12921;SDS011;6528;48.086;16.282;2022-07-25T00:01:50;6.27;;;5.77;;
12921;SDS011;6528;48.086;16.282;2022-07-25T00:04:18;6.70;;;6.20;;
12921;SDS011;6528;48.086;16.282;2022-07-25T00:06:44;6.57;;;5.97;;
12921;SDS011;6528;48.086;16.282;2022-07-25T00:09:11;6.43;;;5.87;;
12921;SDS011;6528;48.086;16.282;2022-07-25T00:11:38;6.70;;;6.17;;
12921;SDS011;6528;48.086;16.282;2022-07-25T00:14:05;6.87;;;6.37;;
12921;SDS011;6528;48.086;16.282;2022-07-25T00:16:33;5.93;;;5.53;;
12921;SDS011;6528;48.086;16.282;2022-07-25T00:19:00;7.70;;;6.30;;
12921;SDS011;6528;48.086;16.282;2022-07-25T00:21:27;7.07;;;6.47;;
12921;SDS011;6528;48.086;16.282;2022-07-25T00:23:54;6.20;;;5.80;;
12921;SDS011;6528;48.086;16.282;2022-07-25T00:26:21;6.80;;;6.20;;
12921;SDS011;6528;48.086;16.282;2022-07-25T00:28:47;7.87;;;7.17;;
12921;SDS011;6528;48.086;16.282;2022-07-25T00:31:14;6.37;;;5.90;;
12921;SDS011;6528;48.086;16.282;2022-07-25T00:33:41;6.03;;;5.43;;
12921;SDS011;6528;48.086;16.282;2022-07-25T00:36:08;6.17;;;5.67;;
12921;SDS011;6528;48.086;16.282;2022-07-25T00:38:35;6.43;;;5.60;;
12921;SDS011;6528;48.086;16.282;2022-07-25T00:41:02;6.80;;;6.30;;
12921;SDS011;6528;48.086;16.282;2022-07-25T00:43:30;6.67;;;6.07;;
12921;SDS011;6528;48.086;16.282;2022-07-25T00:45:57;7.40;;;6.70;;
12921;SDS011;6528;48.086;16.282;2022-07-25T00:48:26;7.17;;;6.47;;
12921;SDS011;6528;48.086;16.282;2022-07-25T00:50:54;7.27;;;6.70;;
12921;SDS011;6528;48.086;16.282;2022-07-25T00:53:21;6.20;;;5.70;;
12921;SDS011;6528;48.086;16.282;2022-07-25T00:55:49;6.80;;;6.30;;
12921;SDS011;6528;48.086;16.282;2022-07-25T00:58:16;6.80;;;6.20;;
12921;SDS011;6528;48.086;16.282;2022-07-25T01:00:44;6.77;;;6.17;;
12921;SDS011;6528;48.086;16.282;2022-07-25T01:03:11;6.77;;;6.17;;
12921;SDS011;6528;48.086;16.282;2022-07-25T01:05:38;6.90;;;6.40;;
12921;SDS011;6528;48.086;16.282;2022-07-25T01:08:05;6.60;;;6.10;;
12921;SDS011;6528;48.086;16.282;2022-07-25T01:10:33;6.67;;;5.97;;
12921;SDS011;6528;48.086;16.282;2022-07-25T01:13:00;6.97;;;6.47;;
12921;SDS011;6528;48.086;16.282;2022-07-25T01:15:27;7.10;;;6.53;;
12921;SDS011;6528;48.086;16.282;2022-07-25T01:17:54;6.43;;;5.93;;
12921;SDS011;6528;48.086;16.282;2022-07-25T01:20:22;8.03;;;6.43;;
12921;SDS011;6528;48.086;16.282;2022-07-25T01:22:50;6.97;;;6.37;;
12921;SDS011;6528;48.086;16.282;2022-07-25T01:25:17;7.20;;;5.77;;
12921;SDS011;6528;48.086;16.282;2022-07-25T01:27:45;7.10;;;6.60;;
12921;SDS011;6528;48.086;16.282;2022-07-25T01:30:19;6.40;;;5.80;;
12921;SDS011;6528;48.086;16.282;2022-07-25T01:32:47;7.30;;;6.80;;
12921;SDS011;6528;48.086;16.282;2022-07-25T01:35:14;6.40;;;5.90;;
12921;SDS011;6528;48.086;16.282;2022-07-25T01:37:41;6.77;;;6.27;;
12921;SDS011;6528;48.086;16.282;2022-07-25T01:40:11;6.50;;;6.00;;
12921;SDS011;6528;48.086;16.282;2022-07-25T01:42:40;6.67;;;5.97;;
12921;SDS011;6528;48.086;16.282;2022-07-25T01:45:07;7.97;;;6.63;;
12921;SDS011;6528;48.086;16.282;2022-07-25T01:47:35;7.30;;;6.70;;
12921;SDS011;6528;48.086;16.282;2022-07-25T01:50:02;6.70;;;6.10;;
12921;SDS011;6528;48.086;16.282;2022-07-25T01:52:30;7.30;;;5.97;;
12921;SDS011;6528;48.086;16.282;2022-07-25T01:54:57;6.43;;;5.93;;
12921;SDS011;6528;48.086;16.282;2022-07-25T01:57:24;6.07;;;5.63;;
12921;SDS011;6528;48.086;16.282;2022-07-25T01:59:56;6.77;;;6.07;;
12921;SDS011;6528;48.086;16.282;2022-07-25T02:02:23;6.40;;;5.80;;
12921;SDS011;6528;48.086;16.282;2022-07-25T02:04:50;6.57;;;5.97;;
12921;SDS011;6528;48.086;16.282;2022-07-25T02:07:17;6.83;;;6.33;;
12921;SDS011;6528;48.086;16.282;2022-07-25T02:09:44;7.43;;;6.93;;
12921;SDS011;6528;48.086;16.282;2022-07-25T02:12:11;7.70;;;6.53;;
12921;SDS011;6528;48.086;16.282;2022-07-25T02:14:38;7.03;;;6.33;;
12921;SDS011;6528;48.086;16.282;2022-07-25T02:17:05;7.83;;;6.10;;
12921;SDS011;6528;48.086;16.282;2022-07-25T02:19:32;6.50;;;6.00;;
12921;SDS011;6528;48.086;16.282;2022-07-25T02:21:59;6.30;;;5.80;;
12921;SDS011;6528;48.086;16.282;2022-07-25T02:24:26;7.67;;;6.97;;
12921;SDS011;6528;48.086;16.282;2022-07-25T02:26:53;7.47;;;6.87;;
12921;SDS011;6528;48.086;16.282;2022-07-25T02:29:19;7.33;;;6.73;;
12921;SDS011;6528;48.086;16.282;2022-07-25T02:31:47;7.57;;;6.90;;
12921;SDS011;6528;48.086;16.282;2022-07-25T02:34:14;6.50;;;6.03;;
12921;SDS011;6528;48.086;16.282;2022-07-25T02:36:40;7.10;;;6.50;;
12921;SDS011;6528;48.086;16.282;2022-07-25T02:39:07;7.80;;;7.20;;
12921;SDS011;6528;48.086;16.282;2022-07-25T02:41:34;6.83;;;6.30;;
12921;SDS011;6528;48.086;16.282;2022-07-25T02:44:01;7.40;;;6.80;;
12921;SDS011;6528;48.086;16.282;2022-07-25T02:46:28;6.97;;;6.47;;
12921;SDS011;6528;48.086;16.282;2022-07-25T02:48:55;7.30;;;6.80;;
12921;SDS011;6528;48.086;16.282;2022-07-25T02:51:22;6.90;;;6.30;;
12921;SDS011;6528;48.086;16.282;2022-07-25T02:53:49;8.60;;;7.03;;
12921;SDS011;6528;48.086;16.282;2022-07-25T02:56:25;7.47;;;6.87;;
12921;SDS011;6528;48.086;16.282;2022-07-25T02:58:56;7.93;;;7.00;;
12921;SDS011;6528;48.086;16.282;2022-07-25T03:01:24;7.50;;;6.90;;
12921;SDS011;6528;48.086;16.282;2022-07-25T03:03:51;7.10;;;6.60;;
12921;SDS011;6528;48.086;16.282;2022-07-25T03:06:17;8.43;;;7.63;;
12921;SDS011;6528;48.086;16.282;2022-07-25T03:08:44;7.80;;;7.10;;
12921;SDS011;6528;48.086;16.282;2022-07-25T03:11:11;7.70;;;7.10;;
12921;SDS011;6528;48.086;16.282;2022-07-25T03:13:39;6.83;;;6.23;;
12921;SDS011;6528;48.086;16.282;2022-07-25T03:16:06;6.67;;;6.17;;
12921;SDS011;6528;48.086;16.282;2022-07-25T03:18:33;7.47;;;6.87;;
12921;SDS011;6528;48.086;16.282;2022-07-25T03:21:00;7.27;;;6.73;;
12921;SDS011;6528;48.086;16.282;2022-07-25T03:23:27;6.83;;;6.33;;
12921;SDS011;6528;48.086;16.282;2022-07-25T03:25:55;7.70;;;7.10;;
12921;SDS011;6528;48.086;16.282;2022-07-25T03:28:22;7.43;;;6.93;;
12921;SDS011;6528;48.086;16.282;2022-07-25T03:30:50;7.50;;;6.80;;
12921;SDS011;6528;48.086;16.282;2022-07-25T03:33:17;7.67;;;7.07;;
12921;SDS011;6528;48.086;16.282;2022-07-25T03:35:45;8.93;;;6.70;;
12921;SDS011;6528;48.086;16.282;2022-07-25T03:38:12;6.80;;;6.30;;
12921;SDS011;6528;48.086;16.282;2022-07-25T03:40:38;7.10;;;6.37;;
12921;SDS011;6528;48.086;16.282;2022-07-25T03:43:05;8.17;;;7.47;;
12921;SDS011;6528;48.086;16.282;2022-07-25T03:45:32;7.50;;;6.90;;
12921;SDS011;6528;48.086;16.282;2022-07-25T03:47:59;8.00;;;7.30;;
12921;SDS011;6528;48.086;16.282;2022-07-25T03:50:26;7.57;;;7.00;;
12921;SDS011;6528;48.086;16.282;2022-07-25T03:52:53;7.10;;;6.57;;
12921;SDS011;6528;48.086;16.282;2022-07-25T03:55:20;7.70;;;7.00;;
12921;SDS011;6528;48.086;16.282;2022-07-25T03:57:47;7.50;;;6.80;;
12921;SDS011;6528;48.086;16.282;2022-07-25T04:00:13;7.20;;;6.70;;
12921;SDS011;6528;48.086;16.282;2022-07-25T04:02:40;7.60;;;6.90;;
12921;SDS011;6528;48.086;16.282;2022-07-25T04:05:07;8.17;;;7.33;;
12921;SDS011;6528;48.086;16.282;2022-07-25T04:07:35;7.70;;;7.10;;
12921;SDS011;6528;48.086;16.282;2022-07-25T04:10:03;8.00;;;7.20;;
12921;SDS011;6528;48.086;16.282;2022-07-25T04:12:31;9.30;;;7.10;;
12921;SDS011;6528;48.086;16.282;2022-07-25T04:14:58;8.43;;;7.83;;
12921;SDS011;6528;48.086;16.282;2022-07-25T04:17:25;8.23;;;7.27;;
12921;SDS011;6528;48.086;16.282;2022-07-25T04:19:51;7.63;;;7.03;;
12921;SDS011;6528;48.086;16.282;2022-07-25T04:22:18;7.80;;;7.10;;
12921;SDS011;6528;48.086;16.282;2022-07-25T04:24:45;7.33;;;6.63;;
12921;SDS011;6528;48.086;16.282;2022-07-25T04:27:12;8.43;;;7.30;;
12921;SDS011;6528;48.086;16.282;2022-07-25T04:29:39;11.90;;;8.20;;
12921;SDS011;6528;48.086;16.282;2022-07-25T04:32:06;25.67;;;8.20;;
12921;SDS011;6528;48.086;16.282;2022-07-25T04:34:33;14.13;;;8.10;;
12921;SDS011;6528;48.086;16.282;2022-07-25T04:36:59;9.27;;;7.30;;
12921;SDS011;6528;48.086;16.282;2022-07-25T04:39:26;8.23;;;7.33;;
12921;SDS011;6528;48.086;16.282;2022-07-25T04:41:53;7.13;;;6.50;;
12921;SDS011;6528;48.086;16.282;2022-07-25T04:44:20;7.80;;;7.20;;
12921;SDS011;6528;48.086;16.282;2022-07-25T04:46:46;8.27;;;7.57;;
12921;SDS011;6528;48.086;16.282;2022-07-25T04:49:13;8.10;;;7.40;;
12921;SDS011;6528;48.086;16.282;2022-07-25T04:51:40;8.37;;;7.57;;
12921;SDS011;6528;48.086;16.282;2022-07-25T04:54:07;7.10;;;6.50;;
12921;SDS011;6528;48.086;16.282;2022-07-25T04:56:35;7.57;;;6.97;;
12921;SDS011;6528;48.086;16.282;2022-07-25T04:59:02;8.17;;;7.37;;
12921;SDS011;6528;48.086;16.282;2022-07-25T05:01:32;7.90;;;7.30;;
12921;SDS011;6528;48.086;16.282;2022-07-25T05:03:59;7.70;;;7.10;;
12921;SDS011;6528;48.086;16.282;2022-07-25T05:06:26;6.77;;;6.13;;
12921;SDS011;6528;48.086;16.282;2022-07-25T05:08:53;8.70;;;7.97;;
12921;SDS011;6528;48.086;16.282;2022-07-25T05:11:20;8.10;;;7.30;;
12921;SDS011;6528;48.086;16.282;2022-07-25T05:13:47;7.70;;;6.90;;
12921;SDS011;6528;48.086;16.282;2022-07-25T05:16:14;8.53;;;7.60;;
12921;SDS011;6528;48.086;16.282;2022-07-25T05:18:41;11.83;;;7.97;;
12921;SDS011;6528;48.086;16.282;2022-07-25T05:21:10;7.87;;;7.27;;
12921;SDS011;6528;48.086;16.282;2022-07-25T05:23:39;7.07;;;6.57;;
12921;SDS011;6528;48.086;16.282;2022-07-25T05:26:06;8.63;;;7.67;;
12921;SDS011;6528;48.086;16.282;2022-07-25T05:28:33;8.53;;;7.77;;
12921;SDS011;6528;48.086;16.282;2022-07-25T05:30:59;7.77;;;7.07;;
12921;SDS011;6528;48.086;16.282;2022-07-25T05:33:26;8.50;;;7.80;;
12921;SDS011;6528;48.086;16.282;2022-07-25T05:35:53;8.43;;;7.73;;
12921;SDS011;6528;48.086;16.282;2022-07-25T05:38:20;8.53;;;7.50;;
12921;SDS011;6528;48.086;16.282;2022-07-25T05:40:47;7.30;;;6.70;;
12921;SDS011;6528;48.086;16.282;2022-07-25T05:43:14;7.37;;;6.80;;
12921;SDS011;6528;48.086;16.282;2022-07-25T05:45:40;6.93;;;6.43;;
12921;SDS011;6528;48.086;16.282;2022-07-25T05:48:07;9.50;;;8.60;;
12921;SDS011;6528;48.086;16.282;2022-07-25T05:50:37;10.53;;;9.37;;
12921;SDS011;6528;48.086;16.282;2022-07-25T05:53:04;10.00;;;9.10;;
12921;SDS011;6528;48.086;16.282;2022-07-25T05:55:31;8.53;;;7.80;;
12921;SDS011;6528;48.086;16.282;2022-07-25T05:57:58;7.67;;;6.97;;
12921;SDS011;6528;48.086;16.282;2022-07-25T06:00:27;8.57;;;7.77;;
12921;SDS011;6528;48.086;16.282;2022-07-25T06:02:56;9.30;;;8.50;;
12921;SDS011;6528;48.086;16.282;2022-07-25T06:05:25;14.00;;;9.17;;
12921;SDS011;6528;48.086;16.282;2022-07-25T06:07:52;9.20;;;8.30;;
12921;SDS011;6528;48.086;16.282;2022-07-25T06:10:19;11.10;;;8.73;;
12921;SDS011;6528;48.086;16.282;2022-07-25T06:12:46;9.10;;;8.10;;
12921;SDS011;6528;48.086;16.282;2022-07-25T06:15:14;15.70;;;8.60;;
12921;SDS011;6528;48.086;16.282;2022-07-25T06:17:48;20.10;;;7.80;;
12921;SDS011;6528;48.086;16.282;2022-07-25T06:20:15;7.63;;;6.90;;
12921;SDS011;6528;48.086;16.282;2022-07-25T06:22:42;7.67;;;6.93;;
12921;SDS011;6528;48.086;16.282;2022-07-25T06:25:08;6.90;;;6.40;;
12921;SDS011;6528;48.086;16.282;2022-07-25T06:27:36;10.30;;;6.00;;
12921;SDS011;6528;48.086;16.282;2022-07-25T06:30:04;7.83;;;6.43;;
12921;SDS011;6528;48.086;16.282;2022-07-25T06:32:45;7.57;;;6.37;;
12921;SDS011;6528;48.086;16.282;2022-07-25T06:35:12;6.93;;;5.37;;
12921;SDS011;6528;48.086;16.282;2022-07-25T06:37:39;6.77;;;5.73;;
12921;SDS011;6528;48.086;16.282;2022-07-25T06:40:06;6.53;;;5.90;;
12921;SDS011;6528;48.086;16.282;2022-07-25T06:42:37;5.93;;;5.43;;
12921;SDS011;6528;48.086;16.282;2022-07-25T06:45:05;6.10;;;5.60;;
12921;SDS011;6528;48.086;16.282;2022-07-25T06:47:35;7.00;;;6.30;;
12921;SDS011;6528;48.086;16.282;2022-07-25T06:50:03;7.30;;;5.70;;
12921;SDS011;6528;48.086;16.282;2022-07-25T06:52:32;7.80;;;5.07;;
12921;SDS011;6528;48.086;16.282;2022-07-25T06:55:00;5.90;;;5.30;;
12921;SDS011;6528;48.086;16.282;2022-07-25T06:57:27;6.17;;;5.67;;
12921;SDS011;6528;48.086;16.282;2022-07-25T06:59:54;6.60;;;5.97;;
12921;SDS011;6528;48.086;16.282;2022-07-25T07:02:21;6.37;;;5.77;;
12921;SDS011;6528;48.086;16.282;2022-07-25T07:04:47;6.40;;;5.77;;
12921;SDS011;6528;48.086;16.282;2022-07-25T07:07:15;6.80;;;5.63;;
12921;SDS011;6528;48.086;16.282;2022-07-25T07:09:42;6.70;;;6.20;;
12921;SDS011;6528;48.086;16.282;2022-07-25T07:12:09;7.70;;;4.87;;
12921;SDS011;6528;48.086;16.282;2022-07-25T07:14:36;5.67;;;5.17;;
12921;SDS011;6528;48.086;16.282;2022-07-25T07:17:03;5.20;;;4.73;;
12921;SDS011;6528;48.086;16.282;2022-07-25T07:19:30;6.45;;;4.78;;
12921;SDS011;6528;48.086;16.282;2022-07-25T07:21:58;6.15;;;4.13;;
12921;SDS011;6528;48.086;16.282;2022-07-25T07:24:25;5.88;;;4.43;;
12921;SDS011;6528;48.086;16.282;2022-07-25T07:26:53;4.63;;;4.38;;
12921;SDS011;6528;48.086;16.282;2022-07-25T07:29:20;4.47;;;4.18;;
12921;SDS011;6528;48.086;16.282;2022-07-25T07:31:47;4.88;;;4.00;;
12921;SDS011;6528;48.086;16.282;2022-07-25T07:34:14;5.30;;;4.80;;
12921;SDS011;6528;48.086;16.282;2022-07-25T07:36:41;6.10;;;4.93;;
12921;SDS011;6528;48.086;16.282;2022-07-25T07:39:09;4.90;;;4.50;;
12921;SDS011;6528;48.086;16.282;2022-07-25T07:41:36;5.68;;;5.28;;
12921;SDS011;6528;48.086;16.282;2022-07-25T07:44:04;4.43;;;4.13;;
12921;SDS011;6528;48.086;16.282;2022-07-25T07:46:30;5.97;;;4.18;;
12921;SDS011;6528;48.086;16.282;2022-07-25T07:48:57;4.43;;;4.03;;
12921;SDS011;6528;48.086;16.282;2022-07-25T07:51:24;4.45;;;4.15;;
12921;SDS011;6528;48.086;16.282;2022-07-25T07:53:51;6.65;;;4.18;;
12921;SDS011;6528;48.086;16.282;2022-07-25T07:56:37;5.32;;;4.28;;
12921;SDS011;6528;48.086;16.282;2022-07-25T07:59:04;4.00;;;3.70;;
12921;SDS011;6528;48.086;16.282;2022-07-25T08:01:32;5.30;;;4.03;;
12921;SDS011;6528;48.086;16.282;2022-07-25T08:03:59;4.10;;;3.70;;
12921;SDS011;6528;48.086;16.282;2022-07-25T08:06:26;3.80;;;3.55;;
12921;SDS011;6528;48.086;16.282;2022-07-25T08:08:53;6.43;;;3.20;;
12921;SDS011;6528;48.086;16.282;2022-07-25T08:11:20;3.20;;;2.92;;
12921;SDS011;6528;48.086;16.282;2022-07-25T08:13:47;3.55;;;3.25;;
12921;SDS011;6528;48.086;16.282;2022-07-25T08:16:14;3.28;;;3.08;;
12921;SDS011;6528;48.086;16.282;2022-07-25T08:18:41;8.43;;;3.70;;
12921;SDS011;6528;48.086;16.282;2022-07-25T08:21:08;4.68;;;3.47;;
12921;SDS011;6528;48.086;16.282;2022-07-25T08:23:35;3.50;;;3.20;;
12921;SDS011;6528;48.086;16.282;2022-07-25T08:26:05;3.58;;;3.38;;
12921;SDS011;6528;48.086;16.282;2022-07-25T08:28:32;6.18;;;3.47;;
12921;SDS011;6528;48.086;16.282;2022-07-25T08:30:59;3.05;;;2.85;;
12921;SDS011;6528;48.086;16.282;2022-07-25T08:33:26;3.40;;;3.10;;
12921;SDS011;6528;48.086;16.282;2022-07-25T08:35:54;3.38;;;2.85;;
12921;SDS011;6528;48.086;16.282;2022-07-25T08:38:24;3.40;;;3.10;;
12921;SDS011;6528;48.086;16.282;2022-07-25T08:40:52;3.42;;;3.15;;
12921;SDS011;6528;48.086;16.282;2022-07-25T08:43:20;3.20;;;3.00;;
12921;SDS011;6528;48.086;16.282;2022-07-25T08:45:48;3.90;;;3.08;;
12921;SDS011;6528;48.086;16.282;2022-07-25T08:48:17;3.83;;;3.50;;
12921;SDS011;6528;48.086;16.282;2022-07-25T08:50:48;3.30;;;3.10;;
12921;SDS011;6528;48.086;16.282;2022-07-25T08:53:16;3.30;;;3.10;;
12921;SDS011;6528;48.086;16.282;2022-07-25T08:56:04;3.95;;;3.58;;
12921;SDS011;6528;48.086;16.282;2022-07-25T08:58:42;3.40;;;3.17;;
12921;SDS011;6528;48.086;16.282;2022-07-25T09:01:10;3.40;;;3.05;;
12921;SDS011;6528;48.086;16.282;2022-07-25T09:03:38;3.30;;;3.20;;
12921;SDS011;6528;48.086;16.282;2022-07-25T09:08:53;3.40;;;3.20;;
12921;SDS011;6528;48.086;16.282;2022-07-25T09:11:25;5.13;;;3.50;;
12921;SDS011;6528;48.086;16.282;2022-07-25T09:13:56;3.80;;;3.60;;
12921;SDS011;6528;48.086;16.282;2022-07-25T09:16:40;3.40;;;3.20;;
12921;SDS011;6528;48.086;16.282;2022-07-25T09:19:11;5.07;;;4.00;;
12921;SDS011;6528;48.086;16.282;2022-07-25T09:21:41;4.15;;;3.95;;
12921;SDS011;6528;48.086;16.282;2022-07-25T09:24:15;4.80;;;4.50;;
12921;SDS011;6528;48.086;16.282;2022-07-25T09:26:44;4.55;;;4.15;;
12921;SDS011;6528;48.086;16.282;2022-07-25T09:29:20;4.90;;;3.90;;
12921;SDS011;6528;48.086;16.282;2022-07-25T09:31:54;4.00;;;3.70;;
12921;SDS011;6528;48.086;16.282;2022-07-25T09:34:35;4.30;;;3.90;;
12921;SDS011;6528;48.086;16.282;2022-07-25T09:37:04;4.40;;;4.20;;
12921;SDS011;6528;48.086;16.282;2022-07-25T09:39:42;4.47;;;4.10;;
12921;SDS011;6528;48.086;16.282;2022-07-25T09:47:24;5.03;;;4.50;;
12921;SDS011;6528;48.086;16.282;2022-07-25T09:49:51;4.72;;;4.40;;
12921;SDS011;6528;48.086;16.282;2022-07-25T09:52:18;4.88;;;4.57;;
12921;SDS011;6528;48.086;16.282;2022-07-25T09:54:45;4.60;;;4.18;;
12921;SDS011;6528;48.086;16.282;2022-07-25T09:57:15;5.10;;;4.63;;
12921;SDS011;6528;48.086;16.282;2022-07-25T09:59:47;5.38;;;4.75;;
12921;SDS011;6528;48.086;16.282;2022-07-25T10:02:17;5.35;;;4.95;;
12921;SDS011;6528;48.086;16.282;2022-07-25T10:05:14;4.80;;;4.40;;
12921;SDS011;6528;48.086;16.282;2022-07-25T10:07:52;5.22;;;4.82;;
12921;SDS011;6528;48.086;16.282;2022-07-25T10:10:25;5.72;;;5.28;;
12921;SDS011;6528;48.086;16.282;2022-07-25T10:13:03;8.02;;;4.60;;
12921;SDS011;6528;48.086;16.282;2022-07-25T10:15:39;6.30;;;5.45;;
12921;SDS011;6528;48.086;16.282;2022-07-25T10:18:06;5.32;;;4.82;;
12921;SDS011;6528;48.086;16.282;2022-07-25T10:20:34;5.40;;;5.00;;
12921;SDS011;6528;48.086;16.282;2022-07-25T10:23:01;4.75;;;4.45;;
12921;SDS011;6528;48.086;16.282;2022-07-25T10:25:28;5.07;;;4.78;;
12921;SDS011;6528;48.086;16.282;2022-07-25T10:28:06;5.22;;;4.90;;
12921;SDS011;6528;48.086;16.282;2022-07-25T10:30:36;9.02;;;5.05;;
12921;SDS011;6528;48.086;16.282;2022-07-25T10:33:09;5.82;;;5.32;;
12921;SDS011;6528;48.086;16.282;2022-07-25T10:35:40;5.18;;;4.68;;
12921;SDS011;6528;48.086;16.282;2022-07-25T10:38:08;4.80;;;4.50;;
12921;SDS011;6528;48.086;16.282;2022-07-25T10:40:38;5.28;;;4.97;;
12921;SDS011;6528;48.086;16.282;2022-07-25T10:45:40;5.00;;;4.60;;
12921;SDS011;6528;48.086;16.282;2022-07-25T10:48:28;6.37;;;5.60;;
12921;SDS011;6528;48.086;16.282;2022-07-25T10:53:29;4.97;;;4.67;;
12921;SDS011;6528;48.086;16.282;2022-07-25T10:56:02;5.07;;;4.73;;
12921;SDS011;6528;48.086;16.282;2022-07-25T10:58:49;5.00;;;4.70;;
12921;SDS011;6528;48.086;16.282;2022-07-25T11:03:54;5.57;;;5.17;;
12921;SDS011;6528;48.086;16.282;2022-07-25T11:09:00;6.13;;;5.53;;
12921;SDS011;6528;48.086;16.282;2022-07-25T11:11:56;6.73;;;5.90;;
12921;SDS011;6528;48.086;16.282;2022-07-25T11:14:28;8.13;;;5.63;;
12921;SDS011;6528;48.086;16.282;2022-07-25T11:17:14;5.97;;;5.00;;
12921;SDS011;6528;48.086;16.282;2022-07-25T11:19:53;6.20;;;5.80;;
12921;SDS011;6528;48.086;16.282;2022-07-25T11:22:49;6.80;;;6.27;;
12921;SDS011;6528;48.086;16.282;2022-07-25T11:25:21;6.20;;;5.60;;
12921;SDS011;6528;48.086;16.282;2022-07-25T11:27:49;6.53;;;6.03;;
12921;SDS011;6528;48.086;16.282;2022-07-25T11:30:26;5.93;;;5.53;;
12921;SDS011;6528;48.086;16.282;2022-07-25T11:32:56;6.43;;;5.90;;
12921;SDS011;6528;48.086;16.282;2022-07-25T11:35:30;5.90;;;5.50;;
12921;SDS011;6528;48.086;16.282;2022-07-25T11:37:58;6.40;;;5.90;;
12921;SDS011;6528;48.086;16.282;2022-07-25T11:40:28;6.20;;;5.60;;
12921;SDS011;6528;48.086;16.282;2022-07-25T11:42:57;6.70;;;6.30;;
12921;SDS011;6528;48.086;16.282;2022-07-25T11:45:25;7.20;;;6.60;;
12921;SDS011;6528;48.086;16.282;2022-07-25T11:48:05;8.30;;;7.60;;
12921;SDS011;6528;48.086;16.282;2022-07-25T11:50:37;9.00;;;7.10;;
12921;SDS011;6528;48.086;16.282;2022-07-25T11:53:07;6.80;;;6.30;;
12921;SDS011;6528;48.086;16.282;2022-07-25T11:55:37;6.60;;;6.03;;
12921;SDS011;6528;48.086;16.282;2022-07-25T11:58:06;7.47;;;6.90;;
12921;SDS011;6528;48.086;16.282;2022-07-25T12:00:34;6.77;;;6.10;;
12921;SDS011;6528;48.086;16.282;2022-07-25T12:03:09;7.10;;;6.50;;
12921;SDS011;6528;48.086;16.282;2022-07-25T12:05:45;5.93;;;5.53;;
12921;SDS011;6528;48.086;16.282;2022-07-25T12:08:13;6.93;;;6.47;;
12921;SDS011;6528;48.086;16.282;2022-07-25T12:10:43;7.17;;;6.70;;
12921;SDS011;6528;48.086;16.282;2022-07-25T12:13:28;7.03;;;6.50;;
12921;SDS011;6528;48.086;16.282;2022-07-25T12:15:58;7.47;;;6.77;;
12921;SDS011;6528;48.086;16.282;2022-07-25T12:18:25;6.50;;;6.00;;
12921;SDS011;6528;48.086;16.282;2022-07-25T12:20:53;6.30;;;5.80;;
12921;SDS011;6528;48.086;16.282;2022-07-25T12:23:20;6.87;;;6.43;;
12921;SDS011;6528;48.086;16.282;2022-07-25T12:25:47;6.63;;;6.23;;
12921;SDS011;6528;48.086;16.282;2022-07-25T12:28:14;6.77;;;6.37;;
12921;SDS011;6528;48.086;16.282;2022-07-25T12:30:42;6.90;;;6.20;;
12921;SDS011;6528;48.086;16.282;2022-07-25T12:33:10;7.10;;;6.60;;
12921;SDS011;6528;48.086;16.282;2022-07-25T12:35:41;6.03;;;5.63;;
12921;SDS011;6528;48.086;16.282;2022-07-25T12:38:09;6.50;;;6.00;;
12921;SDS011;6528;48.086;16.282;2022-07-25T12:40:36;13.70;;;6.77;;
12921;SDS011;6528;48.086;16.282;2022-07-25T12:43:03;7.50;;;6.90;;
12921;SDS011;6528;48.086;16.282;2022-07-25T12:45:30;6.67;;;6.17;;
12921;SDS011;6528;48.086;16.282;2022-07-25T12:47:57;7.40;;;6.90;;
12921;SDS011;6528;48.086;16.282;2022-07-25T12:50:23;6.67;;;6.27;;
12921;SDS011;6528;48.086;16.282;2022-07-25T12:52:51;7.43;;;6.83;;
12921;SDS011;6528;48.086;16.282;2022-07-25T12:55:19;7.47;;;6.90;;
12921;SDS011;6528;48.086;16.282;2022-07-25T12:57:46;7.77;;;7.07;;
12921;SDS011;6528;48.086;16.282;2022-07-25T13:00:14;7.50;;;7.00;;
12921;SDS011;6528;48.086;16.282;2022-07-25T13:02:43;7.27;;;6.77;;
12921;SDS011;6528;48.086;16.282;2022-07-25T13:05:10;7.37;;;6.77;;
12921;SDS011;6528;48.086;16.282;2022-07-25T13:07:37;6.43;;;5.93;;
12921;SDS011;6528;48.086;16.282;2022-07-25T13:10:04;6.70;;;6.20;;
12921;SDS011;6528;48.086;16.282;2022-07-25T13:12:32;8.00;;;7.50;;
12921;SDS011;6528;48.086;16.282;2022-07-25T13:14:59;7.17;;;6.57;;
12921;SDS011;6528;48.086;16.282;2022-07-25T13:17:26;7.50;;;6.90;;
12921;SDS011;6528;48.086;16.282;2022-07-25T13:19:54;6.83;;;6.40;;
12921;SDS011;6528;48.086;16.282;2022-07-25T13:22:21;7.43;;;6.93;;
12921;SDS011;6528;48.086;16.282;2022-07-25T13:24:49;7.93;;;7.27;;
12921;SDS011;6528;48.086;16.282;2022-07-25T13:27:17;8.40;;;7.83;;
12921;SDS011;6528;48.086;16.282;2022-07-25T13:29:44;8.00;;;7.40;;
12921;SDS011;6528;48.086;16.282;2022-07-25T13:32:12;7.80;;;7.20;;
12921;SDS011;6528;48.086;16.282;2022-07-25T13:34:39;7.53;;;6.77;;
12921;SDS011;6528;48.086;16.282;2022-07-25T13:37:06;7.50;;;7.00;;
12921;SDS011;6528;48.086;16.282;2022-07-25T13:39:32;7.70;;;7.20;;
12921;SDS011;6528;48.086;16.282;2022-07-25T13:42:01;8.20;;;7.43;;
12921;SDS011;6528;48.086;16.282;2022-07-25T13:44:28;8.43;;;7.70;;
12921;SDS011;6528;48.086;16.282;2022-07-25T13:46:55;7.50;;;7.00;;
12921;SDS011;6528;48.086;16.282;2022-07-25T13:49:23;7.70;;;7.10;;
12921;SDS011;6528;48.086;16.282;2022-07-25T13:51:50;6.97;;;6.43;;
12921;SDS011;6528;48.086;16.282;2022-07-25T13:54:17;8.43;;;7.83;;
12921;SDS011;6528;48.086;16.282;2022-07-25T13:56:44;7.90;;;7.33;;
12921;SDS011;6528;48.086;16.282;2022-07-25T13:59:11;7.40;;;6.90;;
12921;SDS011;6528;48.086;16.282;2022-07-25T14:01:46;8.63;;;7.90;;
12921;SDS011;6528;48.086;16.282;2022-07-25T14:04:13;7.90;;;7.40;;
12921;SDS011;6528;48.086;16.282;2022-07-25T14:06:40;8.27;;;7.57;;
12921;SDS011;6528;48.086;16.282;2022-07-25T14:09:07;8.70;;;8.10;;
12921;SDS011;6528;48.086;16.282;2022-07-25T14:11:34;8.07;;;7.27;;
12921;SDS011;6528;48.086;16.282;2022-07-25T14:14:01;8.50;;;7.70;;
12921;SDS011;6528;48.086;16.282;2022-07-25T14:16:28;8.37;;;7.67;;
12921;SDS011;6528;48.086;16.282;2022-07-25T14:18:55;7.43;;;6.73;;
12921;SDS011;6528;48.086;16.282;2022-07-25T14:21:22;7.87;;;7.17;;
12921;SDS011;6528;48.086;16.282;2022-07-25T14:23:50;22.80;;;10.10;;
12921;SDS011;6528;48.086;16.282;2022-07-25T14:26:17;96.40;;;15.10;;
12921;SDS011;6528;48.086;16.282;2022-07-25T14:28:44;62.73;;;14.83;;
12921;SDS011;6528;48.086;16.282;2022-07-25T14:31:11;71.50;;;14.10;;
12921;SDS011;6528;48.086;16.282;2022-07-25T14:33:38;55.97;;;12.73;;
12921;SDS011;6528;48.086;16.282;2022-07-25T14:36:06;38.77;;;11.70;;
12921;SDS011;6528;48.086;16.282;2022-07-25T14:38:33;14.30;;;8.53;;
12921;SDS011;6528;48.086;16.282;2022-07-25T14:41:01;21.63;;;8.77;;
12921;SDS011;6528;48.086;16.282;2022-07-25T14:43:31;8.67;;;7.93;;
12921;SDS011;6528;48.086;16.282;2022-07-25T14:45:58;13.03;;;9.30;;
12921;SDS011;6528;48.086;16.282;2022-07-25T14:48:25;14.90;;;8.47;;
12921;SDS011;6528;48.086;16.282;2022-07-25T14:50:52;8.53;;;7.77;;
12921;SDS011;6528;48.086;16.282;2022-07-25T14:53:19;8.53;;;7.70;;
12921;SDS011;6528;48.086;16.282;2022-07-25T14:55:46;8.73;;;7.93;;
12921;SDS011;6528;48.086;16.282;2022-07-25T14:58:13;9.10;;;8.30;;
12921;SDS011;6528;48.086;16.282;2022-07-25T15:00:40;8.73;;;8.10;;
12921;SDS011;6528;48.086;16.282;2022-07-25T15:03:08;7.77;;;7.07;;
12921;SDS011;6528;48.086;16.282;2022-07-25T15:05:35;8.30;;;7.70;;
12921;SDS011;6528;48.086;16.282;2022-07-25T15:08:04;8.17;;;7.50;;
12921;SDS011;6528;48.086;16.282;2022-07-25T15:10:31;8.90;;;8.20;;
12921;SDS011;6528;48.086;16.282;2022-07-25T15:12:58;8.10;;;7.40;;